sensor_id;sensor_type;location;lat;lon;timestamp;P1;durP1;ratioP1;P2;durP2;ratioP2
11481;SDS011;5797;51.662;6.748;2023-07-13T00:02:07;8.03;;;3.00;;
11481;SDS011;5797;51.662;6.748;2023-07-13T00:04:35;7.33;;;2.70;;
11481;SDS011;5797;51.662;6.748;2023-07-13T00:07:04;5.23;;;2.77;;
11481;SDS011;5797;51.662;6.748;2023-07-13T00:09:32;4.33;;;2.70;;
11481;SDS011;5797;51.662;6.748;2023-07-13T00:12:01;5.10;;;3.00;;
11481;SDS011;5797;51.662;6.748;2023-07-13T00:14:30;5.20;;;2.37;;
11481;SDS011;5797;51.662;6.748;2023-07-13T00:16:59;5.47;;;2.70;;
11481;SDS011;5797;51.662;6.748;2023-07-13T00:19:29;4.43;;;2.70;;
11481;SDS011;5797;51.662;6.748;2023-07-13T00:21:57;6.20;;;2.70;;
11481;SDS011;5797;51.662;6.748;2023-07-13T00:24:26;3.97;;;2.20;;
11481;SDS011;5797;51.662;6.748;2023-07-13T00:26:54;5.87;;;2.43;;
11481;SDS011;5797;51.662;6.748;2023-07-13T00:29:25;5.73;;;2.53;;
11481;SDS011;5797;51.662;6.748;2023-07-13T00:31:54;5.97;;;2.50;;
11481;SDS011;5797;51.662;6.748;2023-07-13T00:34:22;10.03;;;2.67;;
11481;SDS011;5797;51.662;6.748;2023-07-13T00:36:52;4.73;;;2.00;;
11481;SDS011;5797;51.662;6.748;2023-07-13T00:39:20;2.47;;;2.10;;
11481;SDS011;5797;51.662;6.748;2023-07-13T00:41:49;7.97;;;2.20;;
11481;SDS011;5797;51.662;6.748;2023-07-13T00:44:19;7.07;;;2.60;;
11481;SDS011;5797;51.662;6.748;2023-07-13T00:46:50;3.83;;;2.27;;
11481;SDS011;5797;51.662;6.748;2023-07-13T00:49:20;3.77;;;2.00;;
11481;SDS011;5797;51.662;6.748;2023-07-13T00:51:52;3.53;;;2.40;;
11481;SDS011;5797;51.662;6.748;2023-07-13T00:54:27;4.57;;;1.97;;
11481;SDS011;5797;51.662;6.748;2023-07-13T00:56:59;5.40;;;2.20;;
11481;SDS011;5797;51.662;6.748;2023-07-13T00:59:29;5.13;;;2.33;;
11481;SDS011;5797;51.662;6.748;2023-07-13T01:01:58;4.07;;;2.13;;
11481;SDS011;5797;51.662;6.748;2023-07-13T01:04:27;6.30;;;2.00;;
11481;SDS011;5797;51.662;6.748;2023-07-13T01:06:57;7.47;;;2.30;;
11481;SDS011;5797;51.662;6.748;2023-07-13T01:09:27;3.17;;;1.90;;
11481;SDS011;5797;51.662;6.748;2023-07-13T01:11:56;5.50;;;2.20;;
11481;SDS011;5797;51.662;6.748;2023-07-13T01:14:24;4.80;;;2.37;;
11481;SDS011;5797;51.662;6.748;2023-07-13T01:16:53;6.70;;;2.33;;
11481;SDS011;5797;51.662;6.748;2023-07-13T01:19:26;6.43;;;2.07;;
11481;SDS011;5797;51.662;6.748;2023-07-13T01:22:05;6.03;;;2.20;;
11481;SDS011;5797;51.662;6.748;2023-07-13T01:24:35;5.77;;;2.00;;
11481;SDS011;5797;51.662;6.748;2023-07-13T01:27:05;3.90;;;1.77;;
11481;SDS011;5797;51.662;6.748;2023-07-13T01:29:35;6.83;;;1.90;;
11481;SDS011;5797;51.662;6.748;2023-07-13T01:32:09;4.13;;;1.90;;
11481;SDS011;5797;51.662;6.748;2023-07-13T01:34:39;7.37;;;1.93;;
11481;SDS011;5797;51.662;6.748;2023-07-13T01:37:11;2.20;;;1.90;;
11481;SDS011;5797;51.662;6.748;2023-07-13T01:39:40;5.80;;;2.00;;
11481;SDS011;5797;51.662;6.748;2023-07-13T01:42:08;4.67;;;2.00;;
11481;SDS011;5797;51.662;6.748;2023-07-13T01:44:37;3.33;;;1.80;;
11481;SDS011;5797;51.662;6.748;2023-07-13T01:47:05;9.67;;;2.37;;
11481;SDS011;5797;51.662;6.748;2023-07-13T01:49:34;4.20;;;1.67;;
11481;SDS011;5797;51.662;6.748;2023-07-13T01:52:03;3.63;;;2.00;;
11481;SDS011;5797;51.662;6.748;2023-07-13T01:54:33;6.27;;;1.93;;
11481;SDS011;5797;51.662;6.748;2023-07-13T01:57:02;2.60;;;1.87;;
11481;SDS011;5797;51.662;6.748;2023-07-13T01:59:31;5.57;;;1.83;;
11481;SDS011;5797;51.662;6.748;2023-07-13T02:02:00;6.60;;;1.97;;
11481;SDS011;5797;51.662;6.748;2023-07-13T02:04:28;15.93;;;2.37;;
11481;SDS011;5797;51.662;6.748;2023-07-13T02:06:57;4.97;;;2.20;;
11481;SDS011;5797;51.662;6.748;2023-07-13T02:09:25;10.53;;;2.00;;
11481;SDS011;5797;51.662;6.748;2023-07-13T02:11:55;6.37;;;2.20;;
11481;SDS011;5797;51.662;6.748;2023-07-13T02:14:30;4.93;;;1.70;;
11481;SDS011;5797;51.662;6.748;2023-07-13T02:16:58;3.13;;;1.70;;
11481;SDS011;5797;51.662;6.748;2023-07-13T02:19:27;6.67;;;1.50;;
11481;SDS011;5797;51.662;6.748;2023-07-13T02:21:55;7.37;;;2.20;;
11481;SDS011;5797;51.662;6.748;2023-07-13T02:24:24;5.73;;;1.80;;
11481;SDS011;5797;51.662;6.748;2023-07-13T02:26:52;3.67;;;2.07;;
11481;SDS011;5797;51.662;6.748;2023-07-13T02:29:22;5.13;;;1.90;;
11481;SDS011;5797;51.662;6.748;2023-07-13T02:31:50;2.37;;;2.00;;
11481;SDS011;5797;51.662;6.748;2023-07-13T02:34:19;5.33;;;2.00;;
11481;SDS011;5797;51.662;6.748;2023-07-13T02:36:47;6.27;;;1.70;;
11481;SDS011;5797;51.662;6.748;2023-07-13T02:39:16;9.93;;;2.43;;
11481;SDS011;5797;51.662;6.748;2023-07-13T02:41:44;5.67;;;2.67;;
11481;SDS011;5797;51.662;6.748;2023-07-13T02:44:13;3.40;;;1.97;;
11481;SDS011;5797;51.662;6.748;2023-07-13T02:46:43;4.50;;;1.73;;
11481;SDS011;5797;51.662;6.748;2023-07-13T02:49:13;5.23;;;2.00;;
11481;SDS011;5797;51.662;6.748;2023-07-13T02:51:41;6.60;;;1.97;;
11481;SDS011;5797;51.662;6.748;2023-07-13T02:54:10;6.10;;;1.80;;
11481;SDS011;5797;51.662;6.748;2023-07-13T02:56:40;4.23;;;1.90;;
11481;SDS011;5797;51.662;6.748;2023-07-13T02:59:10;4.33;;;1.90;;
11481;SDS011;5797;51.662;6.748;2023-07-13T03:01:39;5.87;;;2.03;;
11481;SDS011;5797;51.662;6.748;2023-07-13T03:04:09;2.67;;;2.07;;
11481;SDS011;5797;51.662;6.748;2023-07-13T03:06:37;2.47;;;1.77;;
11481;SDS011;5797;51.662;6.748;2023-07-13T03:09:05;3.20;;;1.97;;
11481;SDS011;5797;51.662;6.748;2023-07-13T03:11:38;3.60;;;1.90;;
11481;SDS011;5797;51.662;6.748;2023-07-13T03:14:26;4.00;;;1.93;;
11481;SDS011;5797;51.662;6.748;2023-07-13T03:16:56;7.97;;;2.37;;
11481;SDS011;5797;51.662;6.748;2023-07-13T03:19:29;3.03;;;2.00;;
11481;SDS011;5797;51.662;6.748;2023-07-13T03:21:58;6.67;;;2.10;;
11481;SDS011;5797;51.662;6.748;2023-07-13T03:24:26;3.80;;;2.07;;
11481;SDS011;5797;51.662;6.748;2023-07-13T03:26:56;6.10;;;2.10;;
11481;SDS011;5797;51.662;6.748;2023-07-13T03:29:25;5.57;;;2.23;;
11481;SDS011;5797;51.662;6.748;2023-07-13T03:31:53;5.93;;;1.90;;
11481;SDS011;5797;51.662;6.748;2023-07-13T03:34:22;3.87;;;1.80;;
11481;SDS011;5797;51.662;6.748;2023-07-13T03:36:53;2.70;;;1.97;;
11481;SDS011;5797;51.662;6.748;2023-07-13T03:39:22;4.17;;;1.80;;
11481;SDS011;5797;51.662;6.748;2023-07-13T03:41:54;4.90;;;2.03;;
11481;SDS011;5797;51.662;6.748;2023-07-13T03:44:23;5.30;;;2.13;;
11481;SDS011;5797;51.662;6.748;2023-07-13T03:46:56;6.90;;;2.27;;
11481;SDS011;5797;51.662;6.748;2023-07-13T03:49:24;4.37;;;1.90;;
11481;SDS011;5797;51.662;6.748;2023-07-13T03:51:54;4.33;;;1.90;;
11481;SDS011;5797;51.662;6.748;2023-07-13T03:54:23;4.33;;;2.27;;
11481;SDS011;5797;51.662;6.748;2023-07-13T03:56:52;10.10;;;2.57;;
11481;SDS011;5797;51.662;6.748;2023-07-13T03:59:21;9.63;;;2.77;;
11481;SDS011;5797;51.662;6.748;2023-07-13T04:01:51;6.53;;;2.23;;
11481;SDS011;5797;51.662;6.748;2023-07-13T04:04:19;2.43;;;1.73;;
11481;SDS011;5797;51.662;6.748;2023-07-13T04:06:48;4.20;;;2.00;;
11481;SDS011;5797;51.662;6.748;2023-07-13T04:09:18;4.10;;;2.20;;
11481;SDS011;5797;51.662;6.748;2023-07-13T04:11:46;8.47;;;2.10;;
11481;SDS011;5797;51.662;6.748;2023-07-13T04:14:15;8.27;;;2.43;;
11481;SDS011;5797;51.662;6.748;2023-07-13T04:16:43;6.67;;;2.00;;
11481;SDS011;5797;51.662;6.748;2023-07-13T04:19:12;4.87;;;2.07;;
11481;SDS011;5797;51.662;6.748;2023-07-13T04:21:41;5.90;;;2.03;;
11481;SDS011;5797;51.662;6.748;2023-07-13T04:24:09;2.80;;;1.93;;
11481;SDS011;5797;51.662;6.748;2023-07-13T04:26:39;2.90;;;2.00;;
11481;SDS011;5797;51.662;6.748;2023-07-13T04:29:07;2.77;;;1.70;;
11481;SDS011;5797;51.662;6.748;2023-07-13T04:31:36;4.80;;;2.00;;
11481;SDS011;5797;51.662;6.748;2023-07-13T04:34:04;4.13;;;2.47;;
11481;SDS011;5797;51.662;6.748;2023-07-13T04:36:33;3.03;;;1.83;;
11481;SDS011;5797;51.662;6.748;2023-07-13T04:39:04;7.03;;;1.87;;
11481;SDS011;5797;51.662;6.748;2023-07-13T04:41:33;2.97;;;2.10;;
11481;SDS011;5797;51.662;6.748;2023-07-13T04:44:02;6.17;;;2.00;;
11481;SDS011;5797;51.662;6.748;2023-07-13T04:46:31;5.60;;;1.90;;
11481;SDS011;5797;51.662;6.748;2023-07-13T04:49:00;3.10;;;1.80;;
11481;SDS011;5797;51.662;6.748;2023-07-13T04:51:30;8.27;;;2.27;;
11481;SDS011;5797;51.662;6.748;2023-07-13T04:53:59;5.90;;;2.73;;
11481;SDS011;5797;51.662;6.748;2023-07-13T04:56:27;6.80;;;2.10;;
11481;SDS011;5797;51.662;6.748;2023-07-13T04:58:57;4.00;;;1.97;;
11481;SDS011;5797;51.662;6.748;2023-07-13T05:01:27;6.70;;;2.20;;
11481;SDS011;5797;51.662;6.748;2023-07-13T05:03:55;5.57;;;1.90;;
11481;SDS011;5797;51.662;6.748;2023-07-13T05:06:26;4.33;;;2.03;;
11481;SDS011;5797;51.662;6.748;2023-07-13T05:08:55;3.93;;;2.07;;
11481;SDS011;5797;51.662;6.748;2023-07-13T05:11:23;4.03;;;2.20;;
11481;SDS011;5797;51.662;6.748;2023-07-13T05:13:52;3.73;;;2.33;;
11481;SDS011;5797;51.662;6.748;2023-07-13T05:16:20;3.83;;;2.10;;
11481;SDS011;5797;51.662;6.748;2023-07-13T05:18:50;8.97;;;2.30;;
11481;SDS011;5797;51.662;6.748;2023-07-13T05:21:19;7.93;;;2.67;;
11481;SDS011;5797;51.662;6.748;2023-07-13T05:23:47;10.10;;;3.03;;
11481;SDS011;5797;51.662;6.748;2023-07-13T05:26:16;9.37;;;2.73;;
11481;SDS011;5797;51.662;6.748;2023-07-13T05:28:44;8.43;;;2.73;;
11481;SDS011;5797;51.662;6.748;2023-07-13T05:31:13;3.87;;;2.20;;
11481;SDS011;5797;51.662;6.748;2023-07-13T05:33:42;4.93;;;2.30;;
11481;SDS011;5797;51.662;6.748;2023-07-13T05:36:11;6.20;;;2.30;;
11481;SDS011;5797;51.662;6.748;2023-07-13T05:38:40;6.13;;;3.00;;
11481;SDS011;5797;51.662;6.748;2023-07-13T05:41:08;7.80;;;2.73;;
11481;SDS011;5797;51.662;6.748;2023-07-13T05:43:37;9.17;;;2.97;;
11481;SDS011;5797;51.662;6.748;2023-07-13T05:46:05;6.40;;;2.77;;
11481;SDS011;5797;51.662;6.748;2023-07-13T05:48:34;9.47;;;2.87;;
11481;SDS011;5797;51.662;6.748;2023-07-13T05:51:02;9.93;;;3.30;;
11481;SDS011;5797;51.662;6.748;2023-07-13T05:53:33;7.33;;;3.73;;
11481;SDS011;5797;51.662;6.748;2023-07-13T05:56:02;10.83;;;3.33;;
11481;SDS011;5797;51.662;6.748;2023-07-13T05:58:31;11.20;;;3.70;;
11481;SDS011;5797;51.662;6.748;2023-07-13T06:01:00;9.93;;;3.27;;
11481;SDS011;5797;51.662;6.748;2023-07-13T06:03:30;11.40;;;3.50;;
11481;SDS011;5797;51.662;6.748;2023-07-13T06:05:58;7.03;;;3.57;;
11481;SDS011;5797;51.662;6.748;2023-07-13T06:08:28;6.00;;;3.20;;
11481;SDS011;5797;51.662;6.748;2023-07-13T06:11:02;8.47;;;3.90;;
11481;SDS011;5797;51.662;6.748;2023-07-13T06:13:32;9.87;;;3.40;;
11481;SDS011;5797;51.662;6.748;2023-07-13T06:16:00;9.40;;;3.53;;
11481;SDS011;5797;51.662;6.748;2023-07-13T06:18:31;6.73;;;3.60;;
11481;SDS011;5797;51.662;6.748;2023-07-13T06:21:01;8.30;;;3.30;;
11481;SDS011;5797;51.662;6.748;2023-07-13T06:23:29;9.67;;;4.57;;
11481;SDS011;5797;51.662;6.748;2023-07-13T06:25:57;9.90;;;3.70;;
11481;SDS011;5797;51.662;6.748;2023-07-13T06:28:28;8.97;;;4.10;;
11481;SDS011;5797;51.662;6.748;2023-07-13T06:30:56;10.67;;;4.47;;
11481;SDS011;5797;51.662;6.748;2023-07-13T06:33:25;10.77;;;5.07;;
11481;SDS011;5797;51.662;6.748;2023-07-13T06:35:54;12.37;;;4.43;;
11481;SDS011;5797;51.662;6.748;2023-07-13T06:38:22;10.23;;;4.43;;
11481;SDS011;5797;51.662;6.748;2023-07-13T06:40:51;14.67;;;4.93;;
11481;SDS011;5797;51.662;6.748;2023-07-13T06:43:19;8.97;;;4.47;;
11481;SDS011;5797;51.662;6.748;2023-07-13T06:45:50;11.60;;;4.90;;
11481;SDS011;5797;51.662;6.748;2023-07-13T06:48:18;12.17;;;4.97;;
11481;SDS011;5797;51.662;6.748;2023-07-13T06:50:48;11.43;;;4.13;;
11481;SDS011;5797;51.662;6.748;2023-07-13T06:53:17;11.60;;;4.73;;
11481;SDS011;5797;51.662;6.748;2023-07-13T06:55:46;11.50;;;4.27;;
11481;SDS011;5797;51.662;6.748;2023-07-13T06:58:15;9.47;;;4.20;;
11481;SDS011;5797;51.662;6.748;2023-07-13T07:00:44;13.47;;;4.73;;
11481;SDS011;5797;51.662;6.748;2023-07-13T07:03:14;14.93;;;4.73;;
11481;SDS011;5797;51.662;6.748;2023-07-13T07:05:42;8.30;;;4.63;;
11481;SDS011;5797;51.662;6.748;2023-07-13T07:08:11;10.60;;;5.33;;
11481;SDS011;5797;51.662;6.748;2023-07-13T07:10:40;10.77;;;4.33;;
11481;SDS011;5797;51.662;6.748;2023-07-13T07:13:08;8.83;;;4.57;;
11481;SDS011;5797;51.662;6.748;2023-07-13T07:15:37;11.90;;;4.30;;
11481;SDS011;5797;51.662;6.748;2023-07-13T07:18:05;12.47;;;5.20;;
11481;SDS011;5797;51.662;6.748;2023-07-13T07:20:35;11.23;;;5.83;;
11481;SDS011;5797;51.662;6.748;2023-07-13T07:23:03;15.17;;;6.40;;
11481;SDS011;5797;51.662;6.748;2023-07-13T07:25:32;9.87;;;5.40;;
11481;SDS011;5797;51.662;6.748;2023-07-13T07:28:04;12.60;;;5.47;;
11481;SDS011;5797;51.662;6.748;2023-07-13T07:30:35;12.97;;;5.57;;
11481;SDS011;5797;51.662;6.748;2023-07-13T07:33:07;13.07;;;6.87;;
11481;SDS011;5797;51.662;6.748;2023-07-13T07:35:37;8.20;;;4.73;;
11481;SDS011;5797;51.662;6.748;2023-07-13T07:38:26;12.60;;;4.90;;
11481;SDS011;5797;51.662;6.748;2023-07-13T07:40:54;9.60;;;4.47;;
11481;SDS011;5797;51.662;6.748;2023-07-13T07:43:25;10.77;;;5.37;;
11481;SDS011;5797;51.662;6.748;2023-07-13T07:45:54;11.03;;;5.57;;
11481;SDS011;5797;51.662;6.748;2023-07-13T07:48:22;8.10;;;4.80;;
11481;SDS011;5797;51.662;6.748;2023-07-13T07:50:52;9.80;;;4.93;;
11481;SDS011;5797;51.662;6.748;2023-07-13T07:53:20;10.77;;;4.50;;
11481;SDS011;5797;51.662;6.748;2023-07-13T07:55:49;8.83;;;4.13;;
11481;SDS011;5797;51.662;6.748;2023-07-13T07:58:21;11.83;;;4.60;;
11481;SDS011;5797;51.662;6.748;2023-07-13T08:00:52;7.40;;;3.73;;
11481;SDS011;5797;51.662;6.748;2023-07-13T08:03:23;10.90;;;4.93;;
11481;SDS011;5797;51.662;6.748;2023-07-13T08:05:56;10.33;;;5.30;;
11481;SDS011;5797;51.662;6.748;2023-07-13T08:08:45;14.00;;;5.67;;
11481;SDS011;5797;51.662;6.748;2023-07-13T08:11:13;12.57;;;6.37;;
11481;SDS011;5797;51.662;6.748;2023-07-13T08:13:44;10.97;;;6.57;;
11481;SDS011;5797;51.662;6.748;2023-07-13T08:16:13;10.53;;;4.67;;
11481;SDS011;5797;51.662;6.748;2023-07-13T08:18:41;8.93;;;4.90;;
11481;SDS011;5797;51.662;6.748;2023-07-13T08:21:11;9.03;;;4.17;;
11481;SDS011;5797;51.662;6.748;2023-07-13T08:23:40;9.37;;;5.37;;
11481;SDS011;5797;51.662;6.748;2023-07-13T08:26:09;11.83;;;4.67;;
11481;SDS011;5797;51.662;6.748;2023-07-13T08:28:37;13.60;;;4.97;;
11481;SDS011;5797;51.662;6.748;2023-07-13T08:31:06;9.13;;;4.10;;
11481;SDS011;5797;51.662;6.748;2023-07-13T08:33:35;12.10;;;4.23;;
11481;SDS011;5797;51.662;6.748;2023-07-13T08:36:05;8.53;;;3.47;;
11481;SDS011;5797;51.662;6.748;2023-07-13T08:38:35;9.10;;;3.53;;
11481;SDS011;5797;51.662;6.748;2023-07-13T08:41:09;8.27;;;3.87;;
11481;SDS011;5797;51.662;6.748;2023-07-13T08:43:40;5.70;;;3.47;;
11481;SDS011;5797;51.662;6.748;2023-07-13T08:46:10;9.20;;;4.00;;
11481;SDS011;5797;51.662;6.748;2023-07-13T08:48:42;10.77;;;4.00;;
11481;SDS011;5797;51.662;6.748;2023-07-13T08:51:17;12.87;;;4.00;;
11481;SDS011;5797;51.662;6.748;2023-07-13T08:53:54;7.83;;;4.00;;
11481;SDS011;5797;51.662;6.748;2023-07-13T08:56:25;8.17;;;4.23;;
11481;SDS011;5797;51.662;6.748;2023-07-13T08:58:56;9.30;;;3.53;;
11481;SDS011;5797;51.662;6.748;2023-07-13T09:01:28;12.20;;;4.10;;
11481;SDS011;5797;51.662;6.748;2023-07-13T09:04:02;7.37;;;4.07;;
11481;SDS011;5797;51.662;6.748;2023-07-13T09:06:43;5.97;;;3.40;;
11481;SDS011;5797;51.662;6.748;2023-07-13T09:09:19;9.20;;;3.70;;
11481;SDS011;5797;51.662;6.748;2023-07-13T09:11:56;6.47;;;4.23;;
11481;SDS011;5797;51.662;6.748;2023-07-13T09:14:35;7.17;;;4.20;;
11481;SDS011;5797;51.662;6.748;2023-07-13T09:17:11;7.40;;;4.07;;
11481;SDS011;5797;51.662;6.748;2023-07-13T09:19:42;8.07;;;3.63;;
11481;SDS011;5797;51.662;6.748;2023-07-13T09:22:14;7.03;;;3.43;;
11481;SDS011;5797;51.662;6.748;2023-07-13T09:24:49;7.97;;;3.97;;
11481;SDS011;5797;51.662;6.748;2023-07-13T09:27:22;10.27;;;3.33;;
11481;SDS011;5797;51.662;6.748;2023-07-13T09:29:54;6.57;;;3.47;;
11481;SDS011;5797;51.662;6.748;2023-07-13T09:32:25;8.87;;;3.60;;
11481;SDS011;5797;51.662;6.748;2023-07-13T09:34:54;7.43;;;3.70;;
11481;SDS011;5797;51.662;6.748;2023-07-13T09:37:24;5.83;;;3.00;;
11481;SDS011;5797;51.662;6.748;2023-07-13T09:39:58;11.17;;;4.10;;
11481;SDS011;5797;51.662;6.748;2023-07-13T09:42:27;12.80;;;3.63;;
11481;SDS011;5797;51.662;6.748;2023-07-13T09:44:57;7.70;;;3.60;;
11481;SDS011;5797;51.662;6.748;2023-07-13T09:47:27;9.80;;;4.20;;
11481;SDS011;5797;51.662;6.748;2023-07-13T09:49:57;7.67;;;3.33;;
11481;SDS011;5797;51.662;6.748;2023-07-13T09:52:38;7.27;;;3.30;;
11481;SDS011;5797;51.662;6.748;2023-07-13T09:55:24;6.07;;;3.90;;
11481;SDS011;5797;51.662;6.748;2023-07-13T09:57:54;9.43;;;3.97;;
11481;SDS011;5797;51.662;6.748;2023-07-13T10:00:23;9.63;;;3.87;;
11481;SDS011;5797;51.662;6.748;2023-07-13T10:03:00;7.40;;;3.50;;
11481;SDS011;5797;51.662;6.748;2023-07-13T10:05:38;7.90;;;3.77;;
11481;SDS011;5797;51.662;6.748;2023-07-13T10:08:21;5.37;;;3.23;;
11481;SDS011;5797;51.662;6.748;2023-07-13T10:10:59;12.17;;;3.93;;
11481;SDS011;5797;51.662;6.748;2023-07-13T10:13:29;6.50;;;3.37;;
11481;SDS011;5797;51.662;6.748;2023-07-13T10:15:59;8.70;;;3.23;;
11481;SDS011;5797;51.662;6.748;2023-07-13T10:18:28;6.63;;;3.80;;
11481;SDS011;5797;51.662;6.748;2023-07-13T10:21:04;7.23;;;3.40;;
11481;SDS011;5797;51.662;6.748;2023-07-13T10:24:00;6.00;;;3.50;;
11481;SDS011;5797;51.662;6.748;2023-07-13T10:26:34;9.20;;;4.10;;
11481;SDS011;5797;51.662;6.748;2023-07-13T10:29:04;8.53;;;4.30;;
11481;SDS011;5797;51.662;6.748;2023-07-13T10:31:35;9.27;;;3.83;;
11481;SDS011;5797;51.662;6.748;2023-07-13T10:34:07;14.93;;;3.50;;
11481;SDS011;5797;51.662;6.748;2023-07-13T10:36:38;6.97;;;3.10;;
11481;SDS011;5797;51.662;6.748;2023-07-13T10:39:10;4.67;;;3.00;;
11481;SDS011;5797;51.662;6.748;2023-07-13T10:41:46;8.60;;;3.77;;
11481;SDS011;5797;51.662;6.748;2023-07-13T10:44:18;6.93;;;3.70;;
11481;SDS011;5797;51.662;6.748;2023-07-13T10:46:53;6.15;;;3.25;;
11481;SDS011;5797;51.662;6.748;2023-07-13T10:49:23;5.38;;;3.03;;
11481;SDS011;5797;51.662;6.748;2023-07-13T10:51:54;6.15;;;3.28;;
11481;SDS011;5797;51.662;6.748;2023-07-13T10:54:26;9.13;;;3.35;;
11481;SDS011;5797;51.662;6.748;2023-07-13T10:57:10;6.57;;;3.42;;
11481;SDS011;5797;51.662;6.748;2023-07-13T10:59:46;4.45;;;2.63;;
11481;SDS011;5797;51.662;6.748;2023-07-13T11:02:21;6.57;;;3.25;;
11481;SDS011;5797;51.662;6.748;2023-07-13T11:04:53;5.38;;;3.13;;
11481;SDS011;5797;51.662;6.748;2023-07-13T11:07:24;4.15;;;2.90;;
11481;SDS011;5797;51.662;6.748;2023-07-13T11:09:55;5.57;;;2.58;;
11481;SDS011;5797;51.662;6.748;2023-07-13T11:15:28;6.82;;;2.97;;
11481;SDS011;5797;51.662;6.748;2023-07-13T11:18:03;5.38;;;2.70;;
11481;SDS011;5797;51.662;6.748;2023-07-13T11:20:36;5.30;;;2.72;;
11481;SDS011;5797;51.662;6.748;2023-07-13T11:23:21;5.85;;;2.72;;
11481;SDS011;5797;51.662;6.748;2023-07-13T11:25:57;5.05;;;2.63;;
11481;SDS011;5797;51.662;6.748;2023-07-13T11:28:29;6.43;;;2.88;;
11481;SDS011;5797;51.662;6.748;2023-07-13T11:31:00;5.75;;;2.53;;
11481;SDS011;5797;51.662;6.748;2023-07-13T11:33:49;5.30;;;2.80;;
11481;SDS011;5797;51.662;6.748;2023-07-13T11:36:20;3.47;;;2.55;;
11481;SDS011;5797;51.662;6.748;2023-07-13T11:38:55;4.20;;;2.60;;
11481;SDS011;5797;51.662;6.748;2023-07-13T11:41:27;3.42;;;2.53;;
11481;SDS011;5797;51.662;6.748;2023-07-13T11:44:18;7.95;;;2.88;;
11481;SDS011;5797;51.662;6.748;2023-07-13T11:46:49;5.15;;;3.05;;
11481;SDS011;5797;51.662;6.748;2023-07-13T11:49:21;5.30;;;2.90;;
11481;SDS011;5797;51.662;6.748;2023-07-13T11:51:51;5.15;;;2.50;;
11481;SDS011;5797;51.662;6.748;2023-07-13T11:54:24;9.00;;;3.10;;
11481;SDS011;5797;51.662;6.748;2023-07-13T11:56:55;9.02;;;2.53;;
11481;SDS011;5797;51.662;6.748;2023-07-13T11:59:26;5.93;;;2.88;;
11481;SDS011;5797;51.662;6.748;2023-07-13T12:01:55;6.10;;;2.92;;
11481;SDS011;5797;51.662;6.748;2023-07-13T12:04:24;3.03;;;2.25;;
11481;SDS011;5797;51.662;6.748;2023-07-13T12:06:57;4.53;;;2.58;;
11481;SDS011;5797;51.662;6.748;2023-07-13T12:09:27;4.75;;;2.10;;
11481;SDS011;5797;51.662;6.748;2023-07-13T12:11:57;6.88;;;2.53;;
11481;SDS011;5797;51.662;6.748;2023-07-13T12:14:29;3.53;;;2.53;;
11481;SDS011;5797;51.662;6.748;2023-07-13T12:17:03;4.03;;;2.20;;
11481;SDS011;5797;51.662;6.748;2023-07-13T12:19:39;4.40;;;2.15;;
11481;SDS011;5797;51.662;6.748;2023-07-13T12:22:08;3.80;;;1.98;;
11481;SDS011;5797;51.662;6.748;2023-07-13T12:24:38;5.53;;;2.53;;
11481;SDS011;5797;51.662;6.748;2023-07-13T12:27:14;6.57;;;2.88;;
11481;SDS011;5797;51.662;6.748;2023-07-13T12:29:52;6.80;;;2.70;;
11481;SDS011;5797;51.662;6.748;2023-07-13T12:32:25;4.25;;;2.40;;
11481;SDS011;5797;51.662;6.748;2023-07-13T12:34:54;4.72;;;2.97;;
11481;SDS011;5797;51.662;6.748;2023-07-13T12:37:25;7.28;;;3.95;;
11481;SDS011;5797;51.662;6.748;2023-07-13T12:39:55;8.55;;;4.93;;
11481;SDS011;5797;51.662;6.748;2023-07-13T12:42:26;8.07;;;4.28;;
11481;SDS011;5797;51.662;6.748;2023-07-13T12:44:58;6.25;;;4.47;;
11481;SDS011;5797;51.662;6.748;2023-07-13T12:47:29;6.57;;;4.53;;
11481;SDS011;5797;51.662;6.748;2023-07-13T12:49:58;6.13;;;3.90;;
11481;SDS011;5797;51.662;6.748;2023-07-13T12:52:29;5.53;;;3.60;;
11481;SDS011;5797;51.662;6.748;2023-07-13T12:55:03;6.50;;;4.23;;
11481;SDS011;5797;51.662;6.748;2023-07-13T12:57:38;5.17;;;3.60;;
11481;SDS011;5797;51.662;6.748;2023-07-13T13:00:20;4.63;;;3.60;;
11481;SDS011;5797;51.662;6.748;2023-07-13T13:02:52;4.67;;;3.47;;
11481;SDS011;5797;51.662;6.748;2023-07-13T13:05:28;4.80;;;3.90;;
11481;SDS011;5797;51.662;6.748;2023-07-13T13:07:57;7.80;;;3.60;;
11481;SDS011;5797;51.662;6.748;2023-07-13T13:10:25;5.87;;;2.77;;
11481;SDS011;5797;51.662;6.748;2023-07-13T13:12:54;6.30;;;3.27;;
11481;SDS011;5797;51.662;6.748;2023-07-13T13:15:24;8.13;;;3.20;;
11481;SDS011;5797;51.662;6.748;2023-07-13T13:17:52;4.20;;;2.83;;
11481;SDS011;5797;51.662;6.748;2023-07-13T13:20:21;5.47;;;3.10;;
11481;SDS011;5797;51.662;6.748;2023-07-13T13:22:50;4.37;;;2.97;;
11481;SDS011;5797;51.662;6.748;2023-07-13T13:25:18;5.07;;;3.10;;
11481;SDS011;5797;51.662;6.748;2023-07-13T13:27:47;4.43;;;3.43;;
11481;SDS011;5797;51.662;6.748;2023-07-13T13:30:17;3.70;;;2.80;;
11481;SDS011;5797;51.662;6.748;2023-07-13T13:32:47;5.13;;;3.27;;
11481;SDS011;5797;51.662;6.748;2023-07-13T13:35:16;6.00;;;3.20;;
11481;SDS011;5797;51.662;6.748;2023-07-13T13:37:46;6.30;;;3.10;;
11481;SDS011;5797;51.662;6.748;2023-07-13T13:40:17;4.63;;;3.17;;
11481;SDS011;5797;51.662;6.748;2023-07-13T13:42:48;3.43;;;2.47;;
11481;SDS011;5797;51.662;6.748;2023-07-13T13:45:18;4.53;;;3.17;;
11481;SDS011;5797;51.662;6.748;2023-07-13T13:47:49;3.87;;;3.03;;
11481;SDS011;5797;51.662;6.748;2023-07-13T13:50:19;6.87;;;3.20;;
11481;SDS011;5797;51.662;6.748;2023-07-13T13:52:49;6.07;;;3.33;;
11481;SDS011;5797;51.662;6.748;2023-07-13T13:55:19;4.50;;;3.50;;
11481;SDS011;5797;51.662;6.748;2023-07-13T13:57:51;7.27;;;3.77;;
11481;SDS011;5797;51.662;6.748;2023-07-13T14:00:21;4.33;;;3.37;;
11481;SDS011;5797;51.662;6.748;2023-07-13T14:02:51;6.60;;;3.63;;
11481;SDS011;5797;51.662;6.748;2023-07-13T14:05:22;5.73;;;3.77;;
11481;SDS011;5797;51.662;6.748;2023-07-13T14:07:53;7.83;;;4.40;;
11481;SDS011;5797;51.662;6.748;2023-07-13T14:10:22;8.27;;;4.03;;
11481;SDS011;5797;51.662;6.748;2023-07-13T14:12:51;7.37;;;4.40;;
11481;SDS011;5797;51.662;6.748;2023-07-13T14:15:22;6.30;;;4.30;;
11481;SDS011;5797;51.662;6.748;2023-07-13T14:17:53;5.80;;;4.60;;
11481;SDS011;5797;51.662;6.748;2023-07-13T14:20:25;5.43;;;4.10;;
11481;SDS011;5797;51.662;6.748;2023-07-13T14:22:54;5.20;;;4.00;;
11481;SDS011;5797;51.662;6.748;2023-07-13T14:25:22;8.70;;;4.67;;
11481;SDS011;5797;51.662;6.748;2023-07-13T14:27:51;7.53;;;4.20;;
11481;SDS011;5797;51.662;6.748;2023-07-13T14:30:24;6.77;;;4.70;;
11481;SDS011;5797;51.662;6.748;2023-07-13T14:32:54;7.10;;;4.27;;
11481;SDS011;5797;51.662;6.748;2023-07-13T14:35:23;6.37;;;3.77;;
11481;SDS011;5797;51.662;6.748;2023-07-13T14:37:52;5.73;;;3.87;;
11481;SDS011;5797;51.662;6.748;2023-07-13T14:40:21;4.67;;;3.00;;
11481;SDS011;5797;51.662;6.748;2023-07-13T14:42:53;3.70;;;3.17;;
11481;SDS011;5797;51.662;6.748;2023-07-13T14:45:22;5.37;;;3.50;;
11481;SDS011;5797;51.662;6.748;2023-07-13T14:47:51;5.73;;;3.57;;
11481;SDS011;5797;51.662;6.748;2023-07-13T14:50:23;4.40;;;3.10;;
11481;SDS011;5797;51.662;6.748;2023-07-13T14:52:55;5.13;;;2.97;;
11481;SDS011;5797;51.662;6.748;2023-07-13T14:55:24;9.13;;;3.53;;
11481;SDS011;5797;51.662;6.748;2023-07-13T14:57:54;13.40;;;3.73;;
11481;SDS011;5797;51.662;6.748;2023-07-13T15:00:24;5.70;;;3.33;;
11481;SDS011;5797;51.662;6.748;2023-07-13T15:02:55;4.93;;;3.10;;
11481;SDS011;5797;51.662;6.748;2023-07-13T15:05:27;4.43;;;3.38;;
11481;SDS011;5797;51.662;6.748;2023-07-13T15:07:57;9.47;;;3.53;;
11481;SDS011;5797;51.662;6.748;2023-07-13T15:10:28;4.70;;;3.60;;
11481;SDS011;5797;51.662;6.748;2023-07-13T15:12:59;10.13;;;3.60;;
11481;SDS011;5797;51.662;6.748;2023-07-13T15:15:31;4.43;;;4.00;;
11481;SDS011;5797;51.662;6.748;2023-07-13T15:18:01;3.43;;;2.63;;
11481;SDS011;5797;51.662;6.748;2023-07-13T15:20:31;8.20;;;3.53;;
11481;SDS011;5797;51.662;6.748;2023-07-13T15:23:02;7.37;;;4.33;;
11481;SDS011;5797;51.662;6.748;2023-07-13T15:25:32;8.53;;;4.80;;